Time;durP1;ratioP1;P1;durP2;ratioP2;P2;SDS_P1;SDS_P2;PMS_P1;PMS_P2;Temp;Humidity;BMP_temperature;BMP_pressure;BME280_temperature;BME280_humidity;BME280_pressure;Samples;Min_cycle;Max_cycle;Signal;HPM_P1;HPM_P2
2022/03/31 00:00:35;;;;;;;0.20;0.20;;;10.40;1.00;;;;;;5093831;28;20043;-73
2022/03/31 00:03:04;;;;;;;0.30;0.30;;;10.40;1.00;;;;;;5094398;28;20109;-73
2022/03/31 00:05:30;;;;;;;0.50;0.50;;;10.30;1.00;;;;;;5095734;28;20036;-73
2022/03/31 00:08:01;;;;;;;1.25;0.60;;;10.30;1.00;;;;;;5097505;28;20081;-73
2022/03/31 00:10:34;;;;;;;;;;;10.30;1.00;;;;;;5098588;28;20044;-73
2022/03/31 00:13:02;;;;;;;0.10;0.10;;;10.30;1.00;;;;;;5097228;28;19908;-73
2022/03/31 00:15:30;;;;;;;0.70;0.68;;;10.30;1.00;;;;;;5097234;28;20040;-73
2022/03/31 00:17:58;;;;;;;0.50;0.50;;;10.40;1.00;;;;;;5097189;28;20127;-73
2022/03/31 00:20:28;;;;;;;0.63;0.50;;;10.30;1.00;;;;;;5097698;28;20571;-73
2022/03/31 00:22:54;;;;;;;1.10;0.38;;;10.30;1.00;;;;;;5097283;28;20125;-73
2022/03/31 00:25:22;;;;;;;1.23;0.45;;;10.30;1.00;;;;;;5097376;28;20094;-73
2022/03/31 00:27:48;;;;;;;0.35;0.35;;;10.30;1.00;;;;;;5098111;28;20036;-73
2022/03/31 00:30:14;;;;;;;0.10;0.10;;;10.20;1.00;;;;;;5097084;28;20047;-73
2022/03/31 00:32:41;;;;;;;0.20;0.20;;;10.20;1.00;;;;;;5097549;28;20032;-73
2022/03/31 00:35:10;;;;;;;0.15;0.15;;;10.30;1.00;;;;;;5097165;28;20036;-73
2022/03/31 00:37:36;;;;;;;0.10;0.10;;;10.10;1.00;;;;;;5097504;28;20040;-73
2022/03/31 00:40:04;;;;;;;0.10;0.10;;;10.10;1.00;;;;;;5097337;28;20047;-73
2022/03/31 00:42:30;;;;;;;0.40;0.40;;;10.10;1.00;;;;;;5097326;28;20126;-73
2022/03/31 00:44:55;;;;;;;0.20;0.20;;;10.10;1.00;;;;;;5097265;28;20032;-73
2022/03/31 00:47:21;;;;;;;0.10;0.10;;;10.10;1.00;;;;;;5097101;28;20039;-73
2022/03/31 00:49:47;;;;;;;0.65;0.65;;;10.10;1.00;;;;;;5096687;28;20043;-73
2022/03/31 00:52:13;;;;;;;0.38;0.38;;;10.10;1.00;;;;;;5097177;28;20126;-73
2022/03/31 00:54:43;;;;;;;0.22;0.22;;;10.10;1.00;;;;;;5097057;28;20035;-73
2022/03/31 00:57:10;;;;;;;0.45;0.45;;;10.20;1.00;;;;;;5096869;28;20043;-73
2022/03/31 00:59:37;;;;;;;0.10;0.10;;;10.10;1.00;;;;;;5096937;28;20066;-73
2022/03/31 01:02:04;;;;;;;0.30;0.30;;;10.10;1.00;;;;;;5097188;28;20047;-73
2022/03/31 01:04:30;;;;;;;0.40;0.40;;;10.20;1.00;;;;;;5097055;28;20035;-73
2022/03/31 01:06:56;;;;;;;0.45;0.45;;;10.20;1.00;;;;;;5096560;28;20032;-73
2022/03/31 01:09:22;;;;;;;0.75;0.75;;;10.20;1.00;;;;;;5096733;28;20135;-73
2022/03/31 01:11:49;;;;;;;1.10;0.50;;;10.30;1.00;;;;;;5097004;28;20071;-73
2022/03/31 01:14:15;;;;;;;0.35;0.35;;;10.30;1.00;;;;;;5096692;28;20036;-73
2022/03/31 01:16:41;;;;;;;0.30;0.30;;;10.20;1.00;;;;;;5095729;28;20075;-73
2022/03/31 01:19:11;;;;;;;0.95;0.93;;;10.20;1.00;;;;;;5096278;28;20123;-73
2022/03/31 01:21:38;;;;;;;0.32;0.32;;;10.20;1.00;;;;;;5096552;28;20032;-73
2022/03/31 01:24:09;;;;;;;0.73;0.73;;;10.30;1.00;;;;;;5096115;28;20064;-73
2022/03/31 01:26:37;;;;;;;1.63;0.43;;;10.30;1.00;;;;;;5096228;28;20036;-73
2022/03/31 01:29:05;;;;;;;0.73;0.73;;;10.30;1.00;;;;;;5096024;28;20051;-73
2022/03/31 01:31:31;;;;;;;0.30;0.30;;;10.20;1.00;;;;;;5096209;28;20032;-73
2022/03/31 01:33:58;;;;;;;0.98;0.98;;;10.20;1.00;;;;;;5096041;28;20478;-73
2022/03/31 01:36:25;;;;;;;0.10;0.10;;;10.20;1.00;;;;;;5095936;28;20123;-73
2022/03/31 01:38:51;;;;;;;1.98;0.40;;;10.20;1.00;;;;;;5095600;28;20055;-73
2022/03/31 01:41:17;;;;;;;0.30;0.30;;;10.30;1.00;;;;;;5095898;28;20093;-73
2022/03/31 01:43:43;;;;;;;0.35;0.35;;;10.30;1.00;;;;;;5095637;28;20494;-73
2022/03/31 01:46:09;;;;;;;0.68;0.68;;;10.20;1.00;;;;;;5095989;28;20046;-73
2022/03/31 01:48:35;;;;;;;0.45;0.45;;;10.20;1.00;;;;;;5095617;28;20123;-73
2022/03/31 01:51:05;;;;;;;0.50;0.50;;;10.20;1.00;;;;;;5095702;28;20032;-73
2022/03/31 01:53:32;;;;;;;2.20;0.68;;;10.20;1.00;;;;;;5095616;28;20540;-73
2022/03/31 01:55:58;;;;;;;4.28;1.00;;;10.20;1.00;;;;;;5095256;28;20043;-73
2022/03/31 01:58:24;;;;;;;0.35;0.35;;;10.20;1.00;;;;;;5095215;28;20048;-73
2022/03/31 02:00:52;;;;;;;1.00;0.63;;;10.20;1.00;;;;;;5095696;28;20036;-73
2022/03/31 02:03:19;;;;;;;2.03;1.65;;;10.20;1.00;;;;;;5095607;28;20494;-73
2022/03/31 02:05:45;;;;;;;0.93;0.93;;;10.20;1.00;;;;;;5095408;28;20102;-73
2022/03/31 02:08:11;;;;;;;0.65;0.65;;;10.20;1.00;;;;;;5095174;28;20089;-73
2022/03/31 02:10:37;;;;;;;0.30;0.30;;;10.20;1.00;;;;;;5095254;28;20051;-73
2022/03/31 02:13:03;;;;;;;1.85;1.58;;;10.20;1.00;;;;;;5095576;28;20040;-73
2022/03/31 02:15:29;;;;;;;0.77;0.77;;;10.10;1.00;;;;;;5095205;28;20040;-73
2022/03/31 02:17:55;;;;;;;0.22;0.22;;;10.10;1.00;;;;;;5095170;28;20050;-73
2022/03/31 02:20:23;;;;;;;0.30;0.30;;;10.20;1.00;;;;;;5095149;28;20043;-73
2022/03/31 02:22:48;;;;;;;1.05;0.63;;;10.20;1.00;;;;;;5094788;28;20052;-73
2022/03/31 02:25:14;;;;;;;1.02;0.65;;;10.20;1.00;;;;;;5095119;28;20042;-73
2022/03/31 02:27:40;;;;;;;0.20;0.20;;;10.20;1.00;;;;;;5094722;28;20036;-73
2022/03/31 02:30:07;;;;;;;0.28;0.28;;;10.10;1.00;;;;;;5094663;28;20043;-73
2022/03/31 02:32:34;;;;;;;0.63;0.63;;;10.00;1.00;;;;;;5095112;28;20084;-73
2022/03/31 02:35:00;;;;;;;0.32;0.30;;;10.00;1.00;;;;;;5094830;28;20036;-73
2022/03/31 02:37:26;;;;;;;0.88;0.20;;;10.00;1.00;;;;;;5094715;28;20185;-73
2022/03/31 02:39:51;;;;;;;0.35;0.35;;;10.10;1.00;;;;;;5094864;28;20039;-73
2022/03/31 02:42:17;;;;;;;0.68;0.60;;;10.10;1.00;;;;;;5095098;28;20039;-73
2022/03/31 02:44:44;;;;;;;0.73;0.73;;;10.10;1.00;;;;;;5094514;28;20086;-73
2022/03/31 02:47:10;;;;;;;0.20;0.20;;;10.10;1.00;;;;;;5094494;28;20068;-73
2022/03/31 02:49:36;;;;;;;1.73;1.55;;;10.00;1.00;;;;;;5094682;28;20051;-73
2022/03/31 02:52:03;;;;;;;0.55;0.55;;;10.10;1.00;;;;;;5094616;28;20040;-73
2022/03/31 02:57:13;;;;;;;0.65;0.65;;;10.00;1.00;;;;;;5094369;28;20039;-73
2022/03/31 02:59:39;;;;;;;2.22;2.03;;;10.00;1.00;;;;;;5094683;28;20155;-73
2022/03/31 03:02:05;;;;;;;0.40;0.40;;;10.00;1.00;;;;;;5094862;28;20526;-73
2022/03/31 03:04:32;;;;;;;0.85;0.45;;;10.00;1.00;;;;;;5094526;28;20563;-73
2022/03/31 03:06:58;;;;;;;0.50;0.50;;;10.00;1.00;;;;;;5094074;28;20081;-73
2022/03/31 03:09:24;;;;;;;0.28;0.28;;;10.00;1.00;;;;;;5094958;28;20044;-73
2022/03/31 03:11:50;;;;;;;0.13;0.13;;;10.00;1.00;;;;;;5094735;28;20051;-73
2022/03/31 03:14:16;;;;;;;0.30;0.30;;;9.90;1.00;;;;;;5094237;28;20040;-73
2022/03/31 03:16:42;;;;;;;0.32;0.32;;;10.00;1.00;;;;;;5094475;28;20093;-73
2022/03/31 03:19:08;;;;;;;2.17;1.08;;;9.90;1.00;;;;;;5094435;28;20040;-73
2022/03/31 03:21:37;;;;;;;0.63;0.63;;;10.00;1.00;;;;;;5094437;28;20071;-73
2022/03/31 03:24:03;;;;;;;1.30;0.40;;;10.00;1.00;;;;;;5094651;28;20086;-73
2022/03/31 03:26:30;;;;;;;0.20;0.20;;;9.90;1.00;;;;;;5094949;28;20044;-73
2022/03/31 03:28:56;;;;;;;0.52;0.52;;;10.00;1.00;;;;;;5094297;28;20040;-73
2022/03/31 03:31:22;;;;;;;2.28;0.57;;;10.00;1.00;;;;;;5094353;28;20040;-73
2022/03/31 03:33:48;;;;;;;3.25;1.02;;;9.90;1.00;;;;;;5094757;28;20035;-73
2022/03/31 03:36:16;;;;;;;0.30;0.30;;;9.80;1.00;;;;;;5094659;28;20032;-73
2022/03/31 03:38:43;;;;;;;0.55;0.55;;;9.80;1.00;;;;;;5076724;28;20047;-73
2022/03/31 03:41:13;;;;;;;0.63;0.40;;;9.80;1.00;;;;;;5098015;28;20044;-73
2022/03/31 03:43:40;;;;;;;0.65;0.65;;;9.80;1.00;;;;;;5098568;28;20493;-73
2022/03/31 03:46:06;;;;;;;1.35;0.40;;;9.80;1.00;;;;;;5098086;28;20043;-73
2022/03/31 03:48:32;;;;;;;1.00;0.73;;;9.70;1.00;;;;;;5098235;28;20039;-73
2022/03/31 03:50:58;;;;;;;0.43;0.43;;;9.80;1.00;;;;;;5098838;28;20093;-73
2022/03/31 03:53:25;;;;;;;0.20;0.20;;;9.70;1.00;;;;;;5097446;28;20058;-73
2022/03/31 03:55:51;;;;;;;0.50;0.50;;;9.80;1.00;;;;;;5098504;28;20058;-73
2022/03/31 03:58:18;;;;;;;1.25;1.15;;;9.80;1.00;;;;;;5097974;28;20036;-73
2022/03/31 04:00:44;;;;;;;0.25;0.25;;;9.80;1.00;;;;;;5098012;28;20039;-73
2022/03/31 04:03:10;;;;;;;0.70;0.70;;;9.80;1.00;;;;;;5098236;28;20036;-73
2022/03/31 04:05:35;;;;;;;0.32;0.32;;;9.80;1.00;;;;;;5097937;28;20559;-73
2022/03/31 04:08:01;;;;;;;0.10;0.10;;;9.80;1.00;;;;;;5097653;28;20036;-73
2022/03/31 04:10:27;;;;;;;0.22;0.20;;;9.80;1.00;;;;;;5078182;28;20048;-73
2022/03/31 04:12:53;;;;;;;25.20;1.17;;;9.80;1.00;;;;;;5059417;28;20037;-73
2022/03/31 04:15:19;;;;;;;0.40;0.40;;;9.80;1.00;;;;;;5061851;28;20051;-73
2022/03/31 04:17:45;;;;;;;0.32;0.32;;;9.80;1.00;;;;;;5066615;28;20075;-73
2022/03/31 04:20:13;;;;;;;5.10;1.27;;;9.80;1.00;;;;;;5057688;28;20080;-73
2022/03/31 04:22:40;;;;;;;0.77;0.77;;;9.80;1.00;;;;;;5056362;28;20087;-73
2022/03/31 04:25:07;;;;;;;0.50;0.50;;;9.60;1.00;;;;;;5039552;28;20041;-73
2022/03/31 04:27:35;;;;;;;0.30;0.30;;;9.60;1.00;;;;;;5056570;28;20070;-73
2022/03/31 04:30:02;;;;;;;9.73;0.77;;;9.60;1.00;;;;;;5057876;28;20072;-73
2022/03/31 04:32:28;;;;;;;0.15;0.15;;;9.50;1.00;;;;;;5079877;28;20316;-71
2022/03/31 04:34:54;;;;;;;0.30;0.30;;;9.50;1.00;;;;;;5077171;28;20507;-73
2022/03/31 04:37:20;;;;;;;1.15;0.90;;;9.50;1.00;;;;;;5063016;28;20049;-70
2022/03/31 04:39:46;;;;;;;0.82;0.82;;;9.50;1.00;;;;;;5056108;28;20044;-70
2022/03/31 04:42:12;;;;;;;0.45;0.45;;;9.50;1.00;;;;;;5056561;28;20044;-70
2022/03/31 04:44:38;;;;;;;0.30;0.30;;;9.50;1.00;;;;;;5057233;28;20037;-70
2022/03/31 04:47:05;;;;;;;0.20;0.20;;;9.60;1.00;;;;;;5056633;28;20041;-70
2022/03/31 04:49:31;;;;;;;0.17;0.17;;;9.60;1.00;;;;;;5056550;28;20067;-70
2022/03/31 04:51:57;;;;;;;0.10;0.10;;;9.60;1.00;;;;;;5055800;28;20087;-70
2022/03/31 04:54:23;;;;;;;0.10;0.10;;;9.60;1.00;;;;;;5096731;28;20071;-70
2022/03/31 04:56:50;;;;;;;0.30;0.30;;;9.70;1.00;;;;;;5086452;28;20044;-70
2022/03/31 04:59:16;;;;;;;0.20;0.20;;;9.70;1.00;;;;;;5063263;28;20546;-70
2022/03/31 05:01:42;;;;;;;0.45;0.45;;;9.70;1.00;;;;;;5074335;28;20036;-71
2022/03/31 05:04:10;;;;;;;0.20;0.20;;;9.60;1.00;;;;;;5076055;28;20361;-70
2022/03/31 05:06:36;;;;;;;0.22;0.22;;;9.50;1.00;;;;;;5078796;28;20047;-70
2022/03/31 05:09:03;;;;;;;0.40;0.40;;;9.50;1.00;;;;;;5096161;28;20052;-70
2022/03/31 05:11:29;;;;;;;0.35;0.35;;;9.40;1.00;;;;;;5096316;28;20122;-70
2022/03/31 05:13:55;;;;;;;0.20;0.20;;;9.50;1.00;;;;;;5096176;28;20047;-70
2022/03/31 05:16:21;;;;;;;0.10;0.10;;;9.40;1.00;;;;;;5096030;28;20040;-70
2022/03/31 05:18:47;;;;;;;1.20;1.10;;;9.40;1.00;;;;;;5096202;28;20051;-70
2022/03/31 05:21:14;;;;;;;0.20;0.20;;;9.40;1.00;;;;;;5095982;28;20036;-70
2022/03/31 05:23:40;;;;;;;0.22;0.22;;;9.40;1.00;;;;;;5095814;28;20126;-71
2022/03/31 05:26:06;;;;;;;0.10;0.10;;;9.40;1.00;;;;;;5073185;28;20067;-70
2022/03/31 05:28:33;;;;;;;0.20;0.20;;;9.40;1.00;;;;;;5071095;28;20048;-71
2022/03/31 05:30:59;;;;;;;0.10;0.10;;;9.40;1.00;;;;;;5073370;28;20085;-71
2022/03/31 05:33:25;;;;;;;0.10;0.10;;;9.40;1.00;;;;;;5073446;28;20127;-71
2022/03/31 05:35:50;;;;;;;0.10;0.10;;;9.50;1.00;;;;;;5071862;28;20137;-68
2022/03/31 05:38:16;;;;;;;0.38;0.38;;;9.40;1.00;;;;;;5074255;28;20541;-70
2022/03/31 05:40:42;;;;;;;1.17;0.40;;;9.50;1.00;;;;;;5075108;28;20037;-71
2022/03/31 05:43:08;;;;;;;0.10;0.10;;;9.50;1.00;;;;;;5074508;28;20119;-70
2022/03/31 05:45:34;;;;;;;0.47;0.47;;;9.50;1.00;;;;;;5062922;28;20032;-70
2022/03/31 05:48:00;;;;;;;0.63;0.50;;;9.40;1.00;;;;;;5073232;28;20491;-73
2022/03/31 05:50:27;;;;;;;0.25;0.25;;;9.40;1.00;;;;;;5082797;28;20102;-70
2022/03/31 05:52:53;;;;;;;0.82;0.82;;;9.50;1.00;;;;;;5056414;28;20048;-70
2022/03/31 05:55:20;;;;;;;0.77;0.77;;;9.50;1.00;;;;;;5060941;28;20032;-70
2022/03/31 05:57:46;;;;;;;0.10;0.10;;;9.40;1.00;;;;;;5061946;28;20064;-70
2022/03/31 06:00:15;;;;;;;0.20;0.20;;;9.50;1.00;;;;;;5075154;28;20040;-70
2022/03/31 06:02:41;;;;;;;0.77;0.77;;;9.50;1.00;;;;;;5070044;28;20093;-70
2022/03/31 06:05:08;;;;;;;0.63;0.63;;;9.60;1.00;;;;;;5055277;28;20040;-70
2022/03/31 06:07:34;;;;;;;1.33;1.23;;;9.60;1.00;;;;;;5054475;28;20072;-70
2022/03/31 06:10:00;;;;;;;0.68;0.68;;;9.60;1.00;;;;;;5059309;28;20486;-70
2022/03/31 06:12:26;;;;;;;0.85;0.85;;;9.60;1.00;;;;;;5055451;28;20037;-70
2022/03/31 06:14:52;;;;;;;1.17;1.08;;;9.50;1.00;;;;;;5061304;28;20120;-70
2022/03/31 06:17:17;;;;;;;0.40;0.40;;;9.40;1.00;;;;;;5070491;28;20051;-70
2022/03/31 06:19:43;;;;;;;0.95;0.95;;;9.40;1.00;;;;;;5065574;28;20123;-70
2022/03/31 06:22:09;;;;;;;0.35;0.35;;;9.50;1.00;;;;;;5074370;28;20079;-70
2022/03/31 06:24:35;;;;;;;2.22;1.55;;;9.60;1.00;;;;;;5057560;28;20057;-70
2022/03/31 06:27:02;;;;;;;0.50;0.50;;;9.60;1.00;;;;;;5055112;28;20044;-70
2022/03/31 06:29:30;;;;;;;0.40;0.40;;;9.60;1.00;;;;;;5055560;28;20045;-70
2022/03/31 06:31:56;;;;;;;2.10;0.90;;;9.60;1.00;;;;;;5054443;28;20037;-70
2022/03/31 06:34:23;;;;;;;0.30;0.30;;;9.60;1.00;;;;;;5055515;28;20043;-70
2022/03/31 06:36:49;;;;;;;0.75;0.65;;;9.60;1.00;;;;;;5073628;28;20028;-70
2022/03/31 06:39:15;;;;;;;1.90;1.05;;;9.50;1.00;;;;;;5074562;28;20040;-70
2022/03/31 06:41:42;;;;;;;0.43;0.43;;;9.50;1.00;;;;;;5074664;28;20037;-70
2022/03/31 06:44:12;;;;;;;0.10;0.10;;;9.60;1.00;;;;;;5074308;28;20491;-70
2022/03/31 06:46:42;;;;;;;3.55;0.50;;;9.60;1.00;;;;;;5059136;28;20087;-70
2022/03/31 06:49:09;;;;;;;0.40;0.40;;;9.70;1.00;;;;;;5054368;28;20051;-70
2022/03/31 06:51:35;;;;;;;0.20;0.20;;;9.70;1.00;;;;;;5055986;28;20036;-70
2022/03/31 06:54:02;;;;;;;2.13;1.17;;;9.70;1.00;;;;;;5054612;28;20049;-70
2022/03/31 06:56:29;;;;;;;0.32;0.32;;;9.70;1.00;;;;;;5055252;28;20063;-70
2022/03/31 06:58:55;;;;;;;1.05;0.63;;;9.70;1.00;;;;;;5070280;28;20036;-70
2022/03/31 07:01:22;;;;;;;1.17;1.08;;;9.80;1.00;;;;;;5074564;28;20094;-71
2022/03/31 07:03:48;;;;;;;0.22;0.22;;;9.80;1.00;;;;;;5074117;28;20036;-71
2022/03/31 07:06:14;;;;;;;3.28;0.95;;;9.80;1.00;;;;;;5073988;28;20036;-71
2022/03/31 07:08:40;;;;;;;0.50;0.50;;;9.80;1.00;;;;;;5074345;28;20047;-71
2022/03/31 07:11:07;;;;;;;1.08;0.70;;;9.90;1.00;;;;;;5074608;28;20043;-71
2022/03/31 07:13:33;;;;;;;0.22;0.22;;;10.00;1.00;;;;;;5074442;28;20060;-71
2022/03/31 07:15:59;;;;;;;0.82;0.52;;;10.10;1.00;;;;;;5074967;28;20114;-71
2022/03/31 07:18:25;;;;;;;0.65;0.63;;;10.20;1.00;;;;;;5078339;28;20036;-71
2022/03/31 07:20:51;;;;;;;0.30;0.30;;;10.20;1.00;;;;;;5077312;28;20094;-70
2022/03/31 07:23:23;;;;;;;0.22;0.22;;;10.30;1.00;;;;;;5061915;28;20053;-70
2022/03/31 07:25:50;;;;;;;1.23;0.63;;;10.30;1.00;;;;;;5068592;28;20040;-70
2022/03/31 07:28:16;;;;;;;0.43;0.43;;;10.30;1.00;;;;;;5076670;28;20514;-70
2022/03/31 07:30:42;;;;;;;0.40;0.40;;;10.20;1.00;;;;;;5078029;28;20044;-70
2022/03/31 07:33:09;;;;;;;2.88;1.20;;;10.20;1.00;;;;;;5058021;28;20044;-70
2022/03/31 07:35:39;;;;;;;0.93;0.93;;;10.30;1.00;;;;;;5062405;28;20045;-70
2022/03/31 07:38:08;;;;;;;1.52;1.42;;;10.40;1.00;;;;;;5057622;28;20534;-70
2022/03/31 07:40:38;;;;;;;0.57;0.57;;;10.60;1.00;;;;;;5069478;28;20391;-70
2022/03/31 07:43:06;;;;;;;0.30;0.30;;;10.60;1.00;;;;;;5075685;28;20052;-70
2022/03/31 07:45:36;;;;;;;0.82;0.82;;;10.60;1.00;;;;;;5069989;28;20043;-70
2022/03/31 07:48:07;;;;;;;1.13;1.13;;;10.60;1.00;;;;;;5072058;28;20076;-74
2022/03/31 07:50:34;;;;;;;2.17;1.85;;;10.40;1.00;;;;;;5058500;28;20051;-69
2022/03/31 07:53:01;;;;;;;2.47;1.10;;;10.40;1.00;;;;;;5076334;28;20033;-70
2022/03/31 07:55:27;;;;;;;0.50;0.50;;;10.40;1.00;;;;;;5075748;28;20072;-70
2022/03/31 07:57:53;;;;;;;1.15;1.15;;;10.50;1.00;;;;;;5070186;28;20061;-70
2022/03/31 08:00:20;;;;;;;1.55;0.80;;;10.50;1.00;;;;;;5075762;28;20075;-70
2022/03/31 08:02:48;;;;;;;0.68;0.68;;;10.60;1.00;;;;;;5064461;28;20063;-70
2022/03/31 08:05:22;;;;;;;5.40;0.75;;;10.60;1.00;;;;;;5076195;28;20040;-70
2022/03/31 08:07:49;;;;;;;0.10;0.10;;;10.80;1.00;;;;;;5076310;28;20032;-70
2022/03/31 08:10:16;;;;;;;2.95;0.90;;;10.70;1.00;;;;;;5075684;28;20080;-70
2022/03/31 08:12:44;;;;;;;1.95;0.65;;;10.60;1.00;;;;;;5077184;28;20090;-70
2022/03/31 08:15:11;;;;;;;2.13;1.52;;;10.50;1.00;;;;;;5076609;28;20037;-70
2022/03/31 08:17:38;;;;;;;1.05;0.95;;;10.50;1.00;;;;;;5077063;28;20119;-70
2022/03/31 08:20:09;;;;;;;1.00;1.00;;;10.60;1.00;;;;;;5076828;28;20060;-70
2022/03/31 08:22:35;;;;;;;1.08;0.85;;;10.70;1.00;;;;;;5076680;28;20070;-71
2022/03/31 08:25:02;;;;;;;2.05;0.77;;;10.70;1.00;;;;;;5077434;28;20036;-70
2022/03/31 08:27:29;;;;;;;0.47;0.47;;;10.70;1.00;;;;;;5076753;28;20499;-70
2022/03/31 08:29:55;;;;;;;0.82;0.82;;;10.70;1.00;;;;;;5076721;28;20495;-70
2022/03/31 08:32:21;;;;;;;0.73;0.73;;;10.70;1.00;;;;;;5077179;28;20111;-70
2022/03/31 08:34:47;;;;;;;0.40;0.40;;;10.50;1.00;;;;;;5076600;28;20178;-70
2022/03/31 08:37:14;;;;;;;0.95;0.85;;;10.70;1.00;;;;;;5076794;28;20029;-70
2022/03/31 08:39:40;;;;;;;0.28;0.28;;;10.80;1.00;;;;;;5076804;28;20494;-70
2022/03/31 08:42:06;;;;;;;0.93;0.75;;;10.70;1.00;;;;;;5077051;28;20040;-70
2022/03/31 08:44:35;;;;;;;1.33;1.23;;;10.70;1.00;;;;;;5077478;28;20032;-70
2022/03/31 08:47:01;;;;;;;0.70;0.70;;;10.60;1.00;;;;;;5076628;28;20040;-70
2022/03/31 08:49:29;;;;;;;0.55;0.55;;;10.80;1.00;;;;;;5076618;28;20047;-70
2022/03/31 08:51:56;;;;;;;2.03;1.30;;;10.70;1.00;;;;;;5077104;28;20072;-70
2022/03/31 08:54:21;;;;;;;0.43;0.43;;;10.70;1.00;;;;;;5076605;28;20483;-70
2022/03/31 08:56:47;;;;;;;1.60;1.33;;;11.00;1.00;;;;;;5076230;28;20086;-70
2022/03/31 08:59:13;;;;;;;1.40;1.23;;;11.10;1.00;;;;;;5076126;28;20040;-71
2022/03/31 09:01:39;;;;;;;0.32;0.32;;;10.90;1.00;;;;;;5076124;28;20093;-70
2022/03/31 09:04:06;;;;;;;0.80;0.75;;;11.20;1.00;;;;;;5076413;28;20093;-71
2022/03/31 09:06:32;;;;;;;1.65;1.23;;;11.10;1.00;;;;;;5076592;28;20040;-70
2022/03/31 09:09:03;;;;;;;1.35;1.17;;;11.30;1.00;;;;;;5075785;28;20036;-70
2022/03/31 09:11:34;;;;;;;1.17;0.95;;;11.30;1.00;;;;;;5075774;28;20047;-70
2022/03/31 09:14:05;;;;;;;1.13;0.77;;;11.40;1.00;;;;;;5075960;28;20033;-70
2022/03/31 09:16:32;;;;;;;0.70;0.70;;;11.10;1.00;;;;;;5076130;28;20047;-70
2022/03/31 09:19:09;;;;;;;0.30;0.30;;;11.20;1.00;;;;;;5075962;28;20044;-70
2022/03/31 09:21:51;;;;;;;3.75;1.48;;;11.30;1.00;;;;;;5076380;28;20032;-70
2022/03/31 09:24:18;;;;;;;1.55;0.82;;;11.40;1.00;;;;;;5076157;28;20045;-70
2022/03/31 09:26:49;;;;;;;5.93;1.58;;;11.50;1.00;;;;;;5076204;28;20032;-70
2022/03/31 09:29:17;;;;;;;;;;;11.20;1.00;;;;;;5076815;28;20059;-70
2022/03/31 09:31:44;;;;;;;2.10;1.25;;;11.10;1.00;;;;;;5076579;28;19909;-70
2022/03/31 09:34:10;;;;;;;1.48;1.38;;;11.00;1.00;;;;;;5075829;28;20046;-70
2022/03/31 09:36:37;;;;;;;1.13;1.10;;;11.10;1.00;;;;;;5076036;28;20119;-70
2022/03/31 09:39:09;;;;;;;0.40;0.40;;;11.20;1.00;;;;;;5075292;28;20064;-70
2022/03/31 09:41:37;;;;;;;6.88;1.13;;;11.20;1.00;;;;;;5075664;28;20036;-70
2022/03/31 09:44:07;;;;;;;0.20;0.20;;;11.70;1.00;;;;;;5075891;28;20049;-70
2022/03/31 09:46:35;;;;;;;1.27;0.93;;;12.10;1.00;;;;;;5076153;28;20479;-70
2022/03/31 09:49:17;;;;;;;2.88;1.10;;;12.50;1.00;;;;;;5075664;28;20048;-70
2022/03/31 09:51:45;;;;;;;1.50;1.40;;;11.90;1.00;;;;;;5076135;28;20471;-70
2022/03/31 09:54:12;;;;;;;0.55;0.55;;;11.60;1.00;;;;;;5075405;28;20506;-70
2022/03/31 09:56:39;;;;;;;0.75;0.75;;;11.80;1.00;;;;;;5075609;28;20042;-70
2022/03/31 09:59:14;;;;;;;2.08;0.93;;;11.80;1.00;;;;;;5075509;28;20106;-70
2022/03/31 10:01:41;;;;;;;5.15;0.52;;;12.00;1.00;;;;;;5075846;28;20040;-70
2022/03/31 10:04:08;;;;;;;2.78;1.10;;;12.40;1.00;;;;;;5075846;28;20040;-70
2022/03/31 10:06:36;;;;;;;1.90;1.67;;;12.50;1.00;;;;;;5075443;28;20139;-70
2022/03/31 10:09:04;;;;;;;5.47;1.35;;;12.40;1.00;;;;;;5074992;28;20087;-70
2022/03/31 10:11:32;;;;;;;0.75;0.75;;;12.30;1.00;;;;;;5075380;28;20036;-70
2022/03/31 10:14:21;;;;;;;0.60;0.60;;;12.10;1.00;;;;;;5075350;28;20041;-70
2022/03/31 10:16:55;;;;;;;2.00;1.52;;;12.30;1.00;;;;;;5069427;28;20025;-71
2022/03/31 10:19:28;;;;;;;0.60;0.60;;;12.10;1.00;;;;;;5075576;28;20479;-70
2022/03/31 10:22:02;;;;;;;0.98;0.98;;;12.10;1.00;;;;;;5074679;28;20033;-70
2022/03/31 10:24:46;;;;;;;2.25;1.02;;;12.50;1.00;;;;;;5074648;28;20056;-71
2022/03/31 10:27:27;;;;;;;5.05;0.70;;;13.00;1.00;;;;;;5075262;28;20047;-70
2022/03/31 10:29:54;;;;;;;0.95;0.95;;;12.90;1.00;;;;;;5075099;28;20113;-70
2022/03/31 10:32:21;;;;;;;1.13;0.85;;;12.70;1.00;;;;;;5075512;28;20036;-70
2022/03/31 10:34:53;;;;;;;0.55;0.55;;;12.60;1.00;;;;;;5074673;28;20033;-70
2022/03/31 10:37:39;;;;;;;0.93;0.93;;;12.80;1.00;;;;;;5075102;28;20067;-70
2022/03/31 10:40:09;;;;;;;1.00;1.00;;;12.70;1.00;;;;;;5074369;28;20052;-70
2022/03/31 10:42:37;;;;;;;10.20;2.10;;;12.70;1.00;;;;;;5074337;28;20075;-70
2022/03/31 10:45:07;;;;;;;2.03;1.42;;;12.40;1.00;;;;;;5075084;28;20044;-70
2022/03/31 10:47:35;;;;;;;1.02;1.02;;;12.40;1.00;;;;;;5075337;28;20032;-70
2022/03/31 10:50:02;;;;;;;2.85;1.65;;;12.40;1.00;;;;;;5073750;28;20071;-70
2022/03/31 10:52:28;;;;;;;0.88;0.85;;;12.10;1.00;;;;;;5075093;28;20174;-70
2022/03/31 10:55:18;;;;;;;1.48;1.27;;;12.10;1.00;;;;;;5074511;28;20049;-70
2022/03/31 10:57:45;;;;;;;1.20;1.05;;;12.60;1.00;;;;;;5074202;28;20032;-70
2022/03/31 11:00:14;;;;;;;0.50;0.50;;;12.70;1.00;;;;;;5074672;28;20036;-70
2022/03/31 11:02:43;;;;;;;17.05;2.22;;;12.60;1.00;;;;;;5074423;28;20065;-70
2022/03/31 11:05:10;;;;;;;0.47;0.47;;;12.40;1.00;;;;;;5065206;28;20103;-70
2022/03/31 11:07:37;;;;;;;6.40;1.50;;;12.70;1.00;;;;;;5054123;28;20032;-70
2022/03/31 11:10:07;;;;;;;1.38;1.20;;;12.50;1.00;;;;;;5052672;28;20136;-70
2022/03/31 11:12:34;;;;;;;1.23;1.23;;;12.40;1.00;;;;;;5072543;28;20064;-70
2022/03/31 11:15:03;;;;;;;1.88;1.48;;;12.20;1.00;;;;;;5069133;28;20056;-70
2022/03/31 11:17:30;;;;;;;9.63;1.83;;;12.10;1.00;;;;;;5055342;28;20068;-70
2022/03/31 11:20:13;;;;;;;3.17;2.20;;;12.40;1.00;;;;;;5037742;28;20049;-70
2022/03/31 11:22:47;;;;;;;1.42;0.93;;;12.60;1.00;;;;;;5053434;28;20495;-70
2022/03/31 11:25:14;;;;;;;5.57;0.40;;;12.50;1.00;;;;;;5053812;28;20052;-70
2022/03/31 11:27:41;;;;;;;1.42;0.90;;;12.60;1.00;;;;;;5053446;28;20068;-70
2022/03/31 11:30:15;;;;;;;0.95;0.88;;;12.60;1.00;;;;;;5053081;28;20049;-70
2022/03/31 11:32:42;;;;;;;0.98;0.98;;;12.70;1.00;;;;;;5053616;28;20048;-70
2022/03/31 11:35:17;;;;;;;1.27;0.85;;;12.90;1.00;;;;;;5053159;28;20041;-70
2022/03/31 11:37:50;;;;;;;1.05;1.05;;;12.80;1.00;;;;;;5057762;28;20060;-70
2022/03/31 11:40:35;;;;;;;0.73;0.73;;;12.80;1.00;;;;;;5066601;28;20044;-70
2022/03/31 11:43:05;;;;;;;1.90;1.60;;;13.10;1.00;;;;;;5091847;28;20032;-70
2022/03/31 11:45:37;;;;;;;2.70;1.48;;;13.10;1.00;;;;;;5093164;28;20032;-71
2022/03/31 11:48:14;;;;;;;0.40;0.40;;;13.30;1.00;;;;;;5094503;28;20039;-70
2022/03/31 11:50:52;;;;;;;0.30;0.30;;;13.20;1.00;;;;;;5094292;28;20101;-70
2022/03/31 11:53:33;;;;;;;0.45;0.45;;;13.00;1.00;;;;;;5094185;28;20039;-70
2022/03/31 11:56:06;;;;;;;0.73;0.73;;;13.20;1.00;;;;;;5094610;28;20154;-70
2022/03/31 11:58:52;;;;;;;1.65;0.93;;;13.10;1.00;;;;;;5094375;28;20119;-70
2022/03/31 12:01:43;;;;;;;1.70;1.52;;;12.60;1.00;;;;;;5096220;28;20123;-70
2022/03/31 12:04:24;;;;;;;1.80;1.48;;;12.20;1.00;;;;;;5097780;28;20483;-70
2022/03/31 12:06:51;;;;;;;0.45;0.45;;;12.00;1.00;;;;;;5097887;28;20113;-70
2022/03/31 12:09:18;;;;;;;4.45;1.45;;;11.80;1.00;;;;;;5097635;28;20102;-70
2022/03/31 12:11:45;;;;;;;0.80;0.80;;;11.60;1.00;;;;;;5097583;28;20032;-70
2022/03/31 12:14:11;;;;;;;1.60;1.40;;;11.60;1.00;;;;;;5079731;28;20522;-70
2022/03/31 12:16:49;;;;;;;1.05;1.05;;;11.80;1.00;;;;;;5097895;28;20064;-70
2022/03/31 12:19:16;;;;;;;0.98;0.98;;;11.90;1.00;;;;;;5098433;28;20542;-70
2022/03/31 12:21:59;;;;;;;1.52;1.20;;;12.10;1.00;;;;;;5097323;28;20129;-70
2022/03/31 12:24:25;;;;;;;1.38;1.08;;;12.10;1.00;;;;;;5097887;28;20048;-70
2022/03/31 12:27:00;;;;;;;0.60;0.60;;;12.00;1.00;;;;;;5097350;28;20395;-70
2022/03/31 12:29:29;;;;;;;1.42;1.33;;;12.20;1.00;;;;;;5097569;28;20052;-70
2022/03/31 12:32:13;;;;;;;1.77;1.58;;;12.30;1.00;;;;;;5097225;28;20031;-70
2022/03/31 12:34:56;;;;;;;0.75;0.75;;;12.60;1.00;;;;;;5096931;28;20036;-70
2022/03/31 12:37:36;;;;;;;1.25;1.23;;;12.90;1.00;;;;;;5096984;28;20024;-70
2022/03/31 12:40:11;;;;;;;0.50;0.50;;;13.10;1.00;;;;;;5097619;28;20112;-70
2022/03/31 12:42:38;;;;;;;1.27;0.85;;;13.20;1.00;;;;;;5078705;28;20032;-70
2022/03/31 12:45:34;;;;;;;0.90;0.80;;;13.30;1.00;;;;;;5096706;28;20032;-70
2022/03/31 12:48:08;;;;;;;1.67;0.93;;;13.30;1.00;;;;;;5095064;28;20074;-70
2022/03/31 12:50:34;;;;;;;2.45;1.63;;;13.30;1.00;;;;;;5097019;28;20048;-70
2022/03/31 12:53:01;;;;;;;0.98;0.98;;;13.20;1.00;;;;;;5096701;28;20494;-70
2022/03/31 12:55:37;;;;;;;1.10;1.02;;;13.20;1.00;;;;;;5096646;28;20036;-70
2022/03/31 12:58:06;;;;;;;0.30;0.30;;;13.30;1.00;;;;;;5096805;28;20088;-70
2022/03/31 13:00:33;;;;;;;2.25;1.85;;;13.40;1.00;;;;;;5094674;28;20557;-71
2022/03/31 13:03:00;;;;;;;1.00;1.00;;;13.40;1.00;;;;;;5064048;28;20044;-71
2022/03/31 13:05:28;;;;;;;0.52;0.52;;;13.00;1.00;;;;;;5076369;28;20043;-71
2022/03/31 13:07:55;;;;;;;1.05;1.05;;;13.40;1.00;;;;;;5064373;28;20115;-71